TimeCDT,TemperatureF,Dew PointF,Humidity,Sea Level PressureIn,VisibilityMPH,Wind Direction,Wind SpeedMPH,Gust SpeedMPH,PrecipitationIn,Events,Conditions,WindDirDegrees,DateUTC
12:15 AM,73.0,70.7,92,30.00,10.0,Calm,Calm,-,N/A,,Clear,0,2013-08-24 05:15:00
12:35 AM,72.5,70.5,93,30.00,10.0,Calm,Calm,-,N/A,,Clear,0,2013-08-24 05:35:00
12:55 AM,72.9,70.9,93,30.00,10.0,SE,3.5,-,N/A,,Clear,130,2013-08-24 05:55:00
1:15 AM,74.7,71.6,90,30.00,10.0,Calm,Calm,-,N/A,,Clear,0,2013-08-24 06:15:00
1:35 AM,72.5,70.7,94,29.99,10.0,Calm,Calm,-,N/A,,Clear,0,2013-08-24 06:35:00
1:55 AM,71.6,70.2,95,29.99,5.0,Calm,Calm,-,N/A,,Clear,0,2013-08-24 06:55:00
2:15 AM,71.2,69.8,95,29.98,7.0,Calm,Calm,-,N/A,,Clear,0,2013-08-24 07:15:00
2:35 AM,71.1,69.8,96,29.98,3.0,Calm,Calm,-,N/A,,Clear,0,2013-08-24 07:35:00
2:55 AM,70.0,68.5,95,29.98,3.0,Calm,Calm,-,N/A,,Clear,0,2013-08-24 07:55:00
3:15 AM,69.8,68.4,95,29.98,4.0,Calm,Calm,-,N/A,,Clear,0,2013-08-24 08:15:00
3:35 AM,69.8,68.5,96,29.98,4.0,Calm,Calm,-,N/A,,Clear,0,2013-08-24 08:35:00
3:55 AM,68.9,67.6,96,29.99,3.0,Calm,Calm,-,N/A,,Clear,0,2013-08-24 08:55:00
4:15 AM,69.3,68.0,96,29.99,3.0,Calm,Calm,-,N/A,,Clear,0,2013-08-24 09:15:00
4:35 AM,68.5,67.1,95,29.99,4.0,Calm,Calm,-,N/A,,Clear,0,2013-08-24 09:35:00
4:55 AM,68.5,67.3,96,29.99,1.8,Calm,Calm,-,N/A,,Mist,0,2013-08-24 09:55:00
5:15 AM,68.7,67.3,95,29.99,1.8,Calm,Calm,-,N/A,,Mist,0,2013-08-24 10:15:00
5:35 AM,69.4,68.2,96,30.00,1.5,Calm,Calm,-,N/A,,Mist,0,2013-08-24 10:35:00
5:55 AM,68.0,66.6,95,30.00,2.5,Calm,Calm,-,N/A,,Clear,0,2013-08-24 10:55:00
6:15 AM,69.3,68.0,96,30.01,0.5,Calm,Calm,-,N/A,Fog,Fog,0,2013-08-24 11:15:00
6:35 AM,69.4,68.4,96,30.02,0.5,Calm,Calm,-,N/A,Fog,Fog,0,2013-08-24 11:35:00
6:55 AM,69.3,68.2,96,30.03,0.8,Calm,Calm,-,N/A,,Overcast,0,2013-08-24 11:55:00
7:15 AM,71.1,70.0,96,30.03,5.0,Calm,Calm,-,N/A,,Scattered Clouds,0,2013-08-24 12:15:00
7:35 AM,72.1,70.9,96,30.03,7.0,Calm,Calm,-,N/A,,Scattered Clouds,0,2013-08-24 12:35:00
7:55 AM,73.4,71.8,95,30.04,10.0,NE,5.8,-,N/A,,Overcast,40,2013-08-24 12:55:00
8:15 AM,74.8,72.3,92,30.05,10.0,NE,4.6,-,N/A,,Overcast,40,2013-08-24 13:15:00
8:35 AM,76.6,72.5,87,30.05,10.0,NE,5.8,-,N/A,,Mostly Cloudy,40,2013-08-24 13:35:00
8:55 AM,78.4,72.7,82,30.05,10.0,ENE,6.9,-,N/A,,Scattered Clouds,60,2013-08-24 13:55:00
9:15 AM,79.9,72.7,79,30.04,10.0,NE,3.5,-,N/A,,Scattered Clouds,50,2013-08-24 14:15:00
9:35 AM,81.5,72.0,73,30.05,10.0,ENE,6.9,-,N/A,,Clear,60,2013-08-24 14:35:00
9:55 AM,82.0,71.2,70,30.05,10.0,ENE,6.9,-,N/A,,Scattered Clouds,70,2013-08-24 14:55:00
10:15 AM,83.7,72.0,68,30.05,10.0,NE,9.2,-,N/A,,Scattered Clouds,40,2013-08-24 15:15:00
10:35 AM,84.4,71.8,66,30.05,10.0,East,9.2,-,N/A,,Scattered Clouds,80,2013-08-24 15:35:00
10:55 AM,85.5,71.4,63,30.05,10.0,East,6.9,-,N/A,,Scattered Clouds,80,2013-08-24 15:55:00
11:15 AM,84.9,70.7,62,30.05,10.0,ENE,6.9,-,N/A,,Scattered Clouds,70,2013-08-24 16:15:00
11:35 AM,86.2,70.2,59,30.05,10.0,ENE,8.1,17.3,N/A,,Mostly Cloudy,70,2013-08-24 16:35:00
11:55 AM,85.8,70.5,60,30.05,10.0,ENE,9.2,-,N/A,,Mostly Cloudy,60,2013-08-24 16:55:00
12:15 PM,85.5,70.7,61,30.04,10.0,ENE,8.1,-,N/A,,Mostly Cloudy,60,2013-08-24 17:15:00
12:35 PM,88.7,70.7,55,30.04,10.0,NE,8.1,-,N/A,,Scattered Clouds,50,2013-08-24 17:35:00
12:55 PM,87.8,69.8,55,30.03,10.0,NE,15.0,18.4,N/A,,Scattered Clouds,40,2013-08-24 17:55:00
1:15 PM,88.0,69.8,55,30.03,10.0,East,3.5,-,N/A,,Mostly Cloudy,80,2013-08-24 18:15:00
1:35 PM,88.5,69.8,54,30.03,10.0,ENE,8.1,-,N/A,,Mostly Cloudy,60,2013-08-24 18:35:00
1:55 PM,89.4,70.0,53,30.03,10.0,East,6.9,-,N/A,,Scattered Clouds,90,2013-08-24 18:55:00
2:15 PM,90.7,70.2,51,30.02,10.0,ENE,10.4,-,N/A,,Mostly Cloudy,70,2013-08-24 19:15:00
2:35 PM,89.6,69.1,51,30.01,10.0,East,9.2,16.1,N/A,,Scattered Clouds,80,2013-08-24 19:35:00
2:55 PM,89.2,70.3,53,30.01,10.0,ENE,5.8,-,N/A,,Scattered Clouds,60,2013-08-24 19:55:00
3:15 PM,90.5,69.8,50,30.00,10.0,ENE,9.2,-,N/A,,Scattered Clouds,70,2013-08-24 20:15:00
3:35 PM,90.7,69.8,50,30.00,10.0,ENE,11.5,-,N/A,,Scattered Clouds,70,2013-08-24 20:35:00
3:55 PM,88.0,70.2,55,30.00,10.0,East,9.2,-,N/A,,Overcast,80,2013-08-24 20:55:00
4:15 PM,89.8,71.2,54,30.01,10.0,East,9.2,16.1,N/A,,Mostly Cloudy,90,2013-08-24 21:15:00
4:35 PM,89.8,70.7,53,30.00,10.0,East,11.5,-,N/A,,Scattered Clouds,90,2013-08-24 21:35:00
4:55 PM,85.8,72.0,63,30.00,10.0,ENE,9.2,-,N/A,,Scattered Clouds,60,2013-08-24 21:55:00
5:15 PM,87.1,72.7,62,29.99,10.0,NE,5.8,-,N/A,,Scattered Clouds,50,2013-08-24 22:15:00
5:35 PM,87.4,71.1,58,29.99,10.0,East,5.8,-,N/A,,Scattered Clouds,90,2013-08-24 22:35:00
5:55 PM,86.4,70.7,59,30.00,10.0,ENE,6.9,-,N/A,,Scattered Clouds,70,2013-08-24 22:55:00
6:15 PM,86.7,70.9,59,30.00,10.0,East,9.2,-,N/A,,Scattered Clouds,100,2013-08-24 23:15:00
6:35 PM,85.1,70.0,60,30.00,10.0,East,5.8,-,N/A,,Clear,80,2013-08-24 23:35:00
6:55 PM,84.2,70.2,63,30.00,10.0,East,5.8,-,N/A,,Clear,100,2013-08-24 23:55:00
7:15 PM,83.3,70.9,66,30.01,10.0,ESE,4.6,-,N/A,,Clear,110,2013-08-25 00:15:00
7:35 PM,81.9,70.7,69,30.01,10.0,East,3.5,-,N/A,,Clear,90,2013-08-25 00:35:00
7:55 PM,80.1,70.2,72,30.01,10.0,Calm,Calm,-,N/A,Thunderstorm,Clear,0,2013-08-25 00:55:00
8:15 PM,78.4,70.3,76,30.01,10.0,Calm,Calm,-,N/A,Thunderstorm,Clear,0,2013-08-25 01:15:00
8:35 PM,75.7,70.7,84,30.02,10.0,Calm,Calm,-,N/A,,Clear,0,2013-08-25 01:35:00
8:55 PM,74.5,70.7,88,30.03,10.0,Calm,Calm,-,N/A,,Clear,0,2013-08-25 01:55:00
9:15 PM,75.4,70.2,84,30.03,10.0,Calm,Calm,-,N/A,,Clear,0,2013-08-25 02:15:00
9:35 PM,75.7,69.8,82,30.05,10.0,Calm,Calm,-,N/A,,Clear,0,2013-08-25 02:35:00
9:55 PM,73.4,69.8,88,30.06,10.0,Calm,Calm,-,N/A,,Clear,0,2013-08-25 02:55:00
10:15 PM,74.5,69.8,85,30.06,10.0,Calm,Calm,-,N/A,,Clear,0,2013-08-25 03:15:00
10:35 PM,75.2,69.8,83,30.07,10.0,ESE,3.5,-,N/A,,Clear,120,2013-08-25 03:35:00
10:55 PM,75.2,70.2,84,30.08,10.0,Calm,Calm,-,N/A,,Clear,0,2013-08-25 03:55:00
11:15 PM,74.3,70.2,87,30.08,10.0,Calm,Calm,-,N/A,,Clear,0,2013-08-25 04:15:00
11:35 PM,73.8,70.2,88,30.09,10.0,Calm,Calm,-,N/A,,Clear,0,2013-08-25 04:35:00
11:55 PM,71.8,70.0,94,30.08,10.0,Calm,Calm,-,N/A,,Clear,0,2013-08-25 04:55:00